Terminal Aerodrome Forecast
Issued by NWS

Home | Current Version | Previous Version | Text Only | Print | Product List | Glossary On
Versions: 1 2 3 4 5 6 7 8 9 10 11 12 13 14
000
FTUS45 KFGZ 220539
TAFGCN
TAF
KGCN 220539Z 2206/2306 VRB05KT P6SM SCT100 SCT200
     FM221600 21012G20KT P6SM VCSH BKN060
      TEMPO 2219/2223 VRB20G30KT 5SM TSRA OVC040CB
     FM230300 VRB05KT P6SM SCT025 BKN040=

USA.gov is the U.S. government's official web portal to all federal, state and local government web resources and services.